Time;durP1;ratioP1;P1;durP2;ratioP2;P2;SDS_P1;SDS_P2;PMS_P1;PMS_P2;Temp;Humidity;BMP_temperature;BMP_pressure;BME280_temperature;BME280_humidity;BME280_pressure;Samples;Min_cycle;Max_cycle;Signal;HPM_P1;HPM_P2
2022/11/22 00:01:21;;;;;;;3.77;1.70;;;7.10;99.90;;;;;;4991966;28;20197;-75
2022/11/22 00:03:48;;;;;;;5.10;1.80;;;7.10;99.90;;;;;;4989309;28;20577;-74
2022/11/22 00:06:15;;;;;;;3.13;0.97;;;7.10;99.90;;;;;;4992180;28;20198;-74
2022/11/22 00:08:43;;;;;;;3.60;1.73;;;7.10;99.90;;;;;;4988877;28;20228;-74
2022/11/22 00:11:10;;;;;;;2.70;1.70;;;7.10;99.90;;;;;;5003661;28;20197;-74
2022/11/22 00:13:39;;;;;;;4.13;1.47;;;7.10;99.90;;;;;;4984464;28;20203;-75
2022/11/22 00:16:06;;;;;;;2.73;1.40;;;7.10;99.90;;;;;;5007583;28;20842;-74
2022/11/22 00:18:34;;;;;;;2.17;1.30;;;7.10;99.90;;;;;;4988746;28;20216;-74
2022/11/22 00:21:06;;;;;;;2.23;1.17;;;7.10;99.90;;;;;;4988187;28;20205;-74
2022/11/22 00:23:33;;;;;;;2.90;1.50;;;7.10;99.90;;;;;;4982784;28;20205;-75
2022/11/22 00:26:00;;;;;;;2.90;1.37;;;7.10;99.90;;;;;;4987082;28;20208;-74
2022/11/22 00:28:28;;;;;;;5.07;1.43;;;7.10;99.90;;;;;;4987528;28;20229;-75
2022/11/22 00:30:57;;;;;;;3.87;1.47;;;7.00;99.90;;;;;;5003651;28;20676;-75
2022/11/22 00:33:24;;;;;;;6.00;1.70;;;7.10;99.90;;;;;;5005434;28;20199;-75
2022/11/22 00:35:52;;;;;;;2.63;1.57;;;7.10;99.90;;;;;;5002545;28;20207;-74
2022/11/22 00:38:20;;;;;;;5.03;1.53;;;7.10;99.90;;;;;;4980131;28;20217;-74
2022/11/22 00:40:50;;;;;;;4.23;1.70;;;7.10;99.90;;;;;;4990422;28;20207;-75
2022/11/22 00:43:17;;;;;;;5.33;1.70;;;7.10;99.90;;;;;;5009286;28;20207;-75
2022/11/22 00:45:45;;;;;;;2.07;1.33;;;7.10;99.90;;;;;;5005142;28;20207;-75
2022/11/22 00:48:15;;;;;;;3.17;1.50;;;7.10;99.90;;;;;;5009996;28;20228;-75
2022/11/22 00:50:43;;;;;;;2.10;1.60;;;7.10;99.90;;;;;;4990489;28;20190;-74
2022/11/22 00:53:10;;;;;;;3.37;1.53;;;7.10;99.90;;;;;;4992286;28;20686;-75
2022/11/22 00:55:38;;;;;;;2.00;1.33;;;7.10;99.90;;;;;;4995521;28;20210;-75
2022/11/22 00:58:05;;;;;;;3.90;1.80;;;7.10;99.90;;;;;;4991624;28;20223;-75
2022/11/22 01:00:33;;;;;;;3.07;1.60;;;7.10;99.90;;;;;;4986689;28;20216;-75
2022/11/22 01:03:00;;;;;;;3.47;1.83;;;7.00;99.90;;;;;;5001296;28;20200;-75
2022/11/22 01:05:31;;;;;;;3.77;1.77;;;7.10;99.90;;;;;;4980979;28;20213;-75
2022/11/22 01:07:58;;;;;;;2.30;1.60;;;7.10;99.90;;;;;;4988284;28;20217;-75
2022/11/22 01:10:25;;;;;;;3.00;1.50;;;7.10;99.90;;;;;;4993337;28;20202;-75
2022/11/22 01:12:53;;;;;;;1.93;1.27;;;7.10;99.90;;;;;;4991446;28;20217;-75
2022/11/22 01:15:20;;;;;;;3.23;1.70;;;7.10;99.90;;;;;;4983374;28;20200;-75
2022/11/22 01:17:48;;;;;;;4.27;1.80;;;7.00;99.90;;;;;;5010318;28;20328;-75
2022/11/22 01:20:15;;;;;;;2.97;1.70;;;7.10;99.90;;;;;;4984762;28;20204;-75
2022/11/22 01:22:44;;;;;;;2.60;1.20;;;7.10;99.90;;;;;;4985004;28;20217;-75
2022/11/22 01:25:12;;;;;;;3.40;1.80;;;7.10;99.90;;;;;;4987800;28;20204;-75
2022/11/22 01:27:39;;;;;;;4.37;1.70;;;7.10;99.90;;;;;;4986774;28;20238;-75
2022/11/22 01:30:08;;;;;;;2.77;1.73;;;7.10;99.90;;;;;;5001482;28;20206;-75
2022/11/22 01:32:35;;;;;;;4.83;1.70;;;7.00;99.90;;;;;;4979558;28;20555;-75
2022/11/22 01:35:02;;;;;;;1.77;1.30;;;7.00;99.90;;;;;;4987576;28;20213;-75
2022/11/22 01:37:30;;;;;;;2.53;1.70;;;7.00;99.90;;;;;;5006786;28;20224;-75
2022/11/22 01:39:59;;;;;;;2.90;1.60;;;7.00;99.90;;;;;;4984997;28;20212;-75
2022/11/22 01:42:42;;;;;;;4.90;2.13;;;7.00;99.90;;;;;;4986389;28;20223;-75
2022/11/22 01:45:41;;;;;;;3.97;1.77;;;7.00;99.90;;;;;;4992509;28;20202;-75
2022/11/22 01:48:19;;;;;;;4.00;1.67;;;7.00;99.90;;;;;;4991164;28;20249;-75
2022/11/22 01:50:51;;;;;;;3.40;1.80;;;7.00;99.90;;;;;;4978281;28;20207;-75
2022/11/22 01:53:22;;;;;;;3.43;1.60;;;7.00;99.90;;;;;;4984562;28;20202;-75
2022/11/22 01:55:52;;;;;;;2.50;1.80;;;7.00;99.90;;;;;;5014225;28;20194;-75
2022/11/22 01:58:21;;;;;;;4.17;1.87;;;7.00;99.90;;;;;;4997840;28;20207;-75
2022/11/22 02:00:51;;;;;;;5.73;1.80;;;7.10;99.90;;;;;;5012377;28;20213;-75
2022/11/22 02:03:20;;;;;;;3.30;1.73;;;7.10;99.90;;;;;;4995433;28;20210;-75
2022/11/22 02:05:49;;;;;;;2.43;1.53;;;7.10;99.90;;;;;;5013559;28;20204;-75
2022/11/22 02:08:22;;;;;;;2.70;1.43;;;7.10;99.90;;;;;;4991135;28;20222;-75
2022/11/22 02:10:54;;;;;;;1.97;1.77;;;7.10;99.90;;;;;;4993252;28;20225;-74
2022/11/22 02:13:23;;;;;;;3.23;1.73;;;7.10;99.90;;;;;;5006811;28;20197;-75
2022/11/22 02:15:52;;;;;;;2.87;1.67;;;7.10;99.90;;;;;;4995212;28;20687;-75
2022/11/22 02:18:19;;;;;;;3.93;2.00;;;7.10;99.90;;;;;;4992587;28;20217;-75
2022/11/22 02:20:47;;;;;;;2.50;1.77;;;7.10;99.90;;;;;;4989708;28;20212;-75
2022/11/22 02:23:23;;;;;;;8.23;1.83;;;7.20;99.90;;;;;;4997235;28;20214;-75
2022/11/22 02:25:55;;;;;;;5.23;1.67;;;7.20;99.90;;;;;;4993575;28;20206;-75
2022/11/22 02:28:22;;;;;;;4.53;2.10;;;7.20;99.90;;;;;;4990816;28;20229;-75
2022/11/22 02:30:50;;;;;;;2.30;1.57;;;7.30;99.90;;;;;;4992744;28;20211;-75
2022/11/22 02:33:17;;;;;;;5.73;2.13;;;7.30;99.90;;;;;;5011720;28;20200;-75
2022/11/22 02:35:45;;;;;;;3.33;2.00;;;7.30;99.90;;;;;;4992040;28;20211;-75
2022/11/22 02:38:16;;;;;;;4.50;2.30;;;7.40;99.90;;;;;;4996672;28;20222;-75
2022/11/22 02:40:49;;;;;;;6.10;2.33;;;7.40;99.90;;;;;;4993900;28;20206;-74
2022/11/22 02:43:20;;;;;;;5.20;1.93;;;7.40;99.90;;;;;;4989801;28;20201;-75
2022/11/22 02:45:48;;;;;;;3.97;2.10;;;7.40;99.90;;;;;;4991941;28;20569;-75
2022/11/22 02:48:17;;;;;;;3.63;2.00;;;7.40;99.90;;;;;;4990107;28;20733;-75
2022/11/22 02:50:45;;;;;;;3.90;2.50;;;7.40;99.90;;;;;;4992025;28;20207;-75
2022/11/22 02:53:13;;;;;;;3.93;2.27;;;7.30;99.90;;;;;;5009397;28;20221;-75
2022/11/22 02:55:41;;;;;;;4.80;2.07;;;7.40;99.90;;;;;;5006643;28;20195;-75
2022/11/22 02:58:08;;;;;;;6.37;2.43;;;7.30;99.90;;;;;;5005336;28;20221;-75
2022/11/22 03:00:38;;;;;;;7.57;2.40;;;7.40;99.90;;;;;;4991984;28;20203;-75
2022/11/22 03:03:06;;;;;;;6.73;2.23;;;7.40;99.90;;;;;;5010245;28;20195;-75
2022/11/22 03:05:33;;;;;;;4.00;1.93;;;7.40;99.90;;;;;;4994262;28;20204;-75
2022/11/22 03:08:01;;;;;;;6.57;2.40;;;7.40;99.90;;;;;;4989497;28;20557;-75
2022/11/22 03:10:28;;;;;;;5.77;2.27;;;7.40;99.90;;;;;;5006415;28;20197;-75
2022/11/22 03:12:57;;;;;;;3.33;2.23;;;7.40;99.90;;;;;;5008264;28;20205;-75
2022/11/22 03:15:26;;;;;;;7.00;2.73;;;7.40;99.90;;;;;;4985043;28;20214;-75
2022/11/22 03:17:59;;;;;;;5.47;2.57;;;7.40;99.90;;;;;;5006439;28;20222;-75
2022/11/22 03:20:26;;;;;;;4.17;1.67;;;7.40;99.90;;;;;;5005433;28;20202;-75
2022/11/22 03:22:54;;;;;;;7.13;2.13;;;7.40;99.90;;;;;;5005513;28;20212;-75
2022/11/22 03:25:22;;;;;;;5.53;2.10;;;7.50;99.90;;;;;;4994005;28;20210;-75
2022/11/22 03:27:49;;;;;;;5.90;2.43;;;7.50;99.90;;;;;;4989703;28;20231;-75
2022/11/22 03:30:17;;;;;;;8.10;2.47;;;7.50;99.90;;;;;;5003901;28;20188;-75
2022/11/22 03:32:44;;;;;;;7.30;2.50;;;7.50;99.90;;;;;;5004248;28;20218;-75
2022/11/22 03:35:13;;;;;;;4.57;3.00;;;7.50;99.90;;;;;;4983494;28;20199;-75
2022/11/22 03:37:40;;;;;;;4.83;2.07;;;7.50;99.90;;;;;;4994376;28;20225;-75
2022/11/22 03:40:09;;;;;;;4.00;2.13;;;7.50;99.90;;;;;;4991382;28;20566;-75
2022/11/22 03:42:36;;;;;;;9.67;2.60;;;7.50;99.90;;;;;;4991648;28;20218;-75
2022/11/22 03:45:04;;;;;;;7.40;2.60;;;7.60;99.90;;;;;;5005828;28;20214;-75
2022/11/22 03:47:35;;;;;;;2.63;1.73;;;7.50;99.90;;;;;;4999066;28;20221;-75
2022/11/22 03:50:02;;;;;;;8.50;2.50;;;7.50;99.90;;;;;;4995552;28;20233;-75
2022/11/22 03:52:31;;;;;;;6.97;2.80;;;7.50;99.90;;;;;;4994367;28;20203;-75
2022/11/22 03:54:58;;;;;;;6.57;2.90;;;7.50;99.90;;;;;;4986084;28;20206;-75
2022/11/22 03:57:25;;;;;;;5.90;3.03;;;7.50;99.90;;;;;;4995533;28;20236;-75
2022/11/22 03:59:53;;;;;;;5.67;2.50;;;7.50;99.90;;;;;;5002663;28;20226;-75
2022/11/22 04:02:20;;;;;;;7.53;2.53;;;7.50;99.90;;;;;;4993122;28;20213;-75
2022/11/22 04:04:48;;;;;;;8.47;2.43;;;7.50;99.90;;;;;;5012998;28;20205;-75
2022/11/22 04:07:15;;;;;;;8.77;2.90;;;7.40;99.90;;;;;;4993424;28;20226;-75
2022/11/22 04:09:44;;;;;;;9.87;2.57;;;7.40;99.90;;;;;;4990699;28;20255;-75
2022/11/22 04:12:11;;;;;;;4.43;2.07;;;7.40;99.90;;;;;;4987321;28;20569;-75
2022/11/22 04:22:56;;;;;;;5.53;2.40;;;7.40;99.90;;;;;;4993143;28;20222;-75
2022/11/22 04:25:24;;;;;;;9.93;2.67;;;7.40;99.90;;;;;;4984190;28;20210;-75
2022/11/22 04:27:54;;;;;;;7.67;2.20;;;7.40;99.90;;;;;;5000662;28;20711;-75
2022/11/22 04:32:44;;;;;;;8.97;2.67;;;7.30;99.90;;;;;;5006881;28;20206;-75
2022/11/22 04:33:08;;;;;;;4.50;2.10;;;7.20;99.90;;;;;;5007105;28;20208;-75
2022/11/22 04:35:36;;;;;;;4.03;2.27;;;7.20;99.90;;;;;;4993966;28;20552;-75
2022/11/22 04:38:03;;;;;;;5.03;2.57;;;7.20;99.90;;;;;;4988741;28;20222;-75
2022/11/22 04:40:33;;;;;;;6.57;2.73;;;7.10;99.90;;;;;;4982900;28;20217;-75
2022/11/22 04:45:46;;;;;;;7.80;2.50;;;7.20;99.90;;;;;;4994617;28;20191;-75
2022/11/22 04:48:43;;;;;;;8.33;2.57;;;7.20;99.90;;;;;;4985997;28;20216;-75
2022/11/22 04:54:10;;;;;;;8.73;2.73;;;7.10;99.90;;;;;;4967667;28;20199;-75
2022/11/22 04:56:39;;;;;;;7.50;2.23;;;7.10;99.90;;;;;;4982624;28;20226;-75
2022/11/22 04:59:07;;;;;;;4.20;1.97;;;7.10;99.90;;;;;;5009770;28;20203;-75
2022/11/22 05:01:34;;;;;;;6.20;2.30;;;7.10;99.90;;;;;;5010098;28;20195;-75
2022/11/22 05:04:01;;;;;;;10.17;2.40;;;7.00;99.90;;;;;;4981556;28;20306;-75
2022/11/22 05:06:29;;;;;;;4.87;2.30;;;7.00;99.90;;;;;;4990396;28;20211;-75
2022/11/22 05:08:57;;;;;;;4.63;2.10;;;7.00;99.90;;;;;;4980705;28;20224;-75
2022/11/22 05:11:24;;;;;;;6.27;2.30;;;7.00;99.90;;;;;;5007202;28;20194;-75
2022/11/22 05:13:53;;;;;;;7.07;2.60;;;7.00;99.90;;;;;;4987155;28;20204;-75
2022/11/22 05:16:20;;;;;;;10.80;2.23;;;7.00;99.90;;;;;;4985948;28;20205;-75
2022/11/22 05:18:57;;;;;;;8.10;2.50;;;6.90;99.90;;;;;;5002416;28;20246;-75
2022/11/22 05:21:26;;;;;;;5.43;2.57;;;7.00;99.90;;;;;;5007275;28;20199;-75
2022/11/22 05:23:55;;;;;;;6.67;2.17;;;7.00;99.90;;;;;;5007484;28;20206;-75
2022/11/22 05:26:23;;;;;;;13.03;2.50;;;7.00;99.90;;;;;;4994082;28;20200;-75
2022/11/22 05:28:51;;;;;;;11.13;3.63;;;7.00;99.90;;;;;;4997223;28;20234;-75
2022/11/22 05:31:22;;;;;;;8.10;2.40;;;7.00;99.90;;;;;;4990482;28;20210;-75
2022/11/22 05:33:51;;;;;;;7.33;2.73;;;7.00;99.90;;;;;;5012033;28;20683;-75
2022/11/22 05:36:19;;;;;;;6.57;2.57;;;7.00;99.90;;;;;;4984181;28;20669;-75
2022/11/22 05:38:47;;;;;;;8.67;3.03;;;6.90;99.90;;;;;;5002984;28;20215;-75
2022/11/22 05:41:54;;;;;;;7.33;2.70;;;6.90;99.90;;;;;;4989904;28;20650;-75
2022/11/22 05:44:22;;;;;;;7.33;2.40;;;6.80;99.90;;;;;;4995138;28;20203;-75
2022/11/22 05:46:51;;;;;;;6.77;2.37;;;6.80;99.90;;;;;;4982136;28;20589;-75
2022/11/22 05:49:18;;;;;;;11.30;2.63;;;6.80;99.90;;;;;;4992963;28;20216;-75
2022/11/22 05:51:46;;;;;;;8.47;2.23;;;6.80;99.90;;;;;;4983783;28;20211;-75
2022/11/22 05:54:21;;;;;;;10.10;3.07;;;6.80;99.90;;;;;;5005675;28;20197;-75
2022/11/22 05:56:49;;;;;;;6.80;2.23;;;6.80;99.90;;;;;;4990739;28;20233;-75
2022/11/22 05:59:16;;;;;;;7.37;2.73;;;6.80;99.90;;;;;;5008960;28;20202;-75
2022/11/22 06:01:44;;;;;;;8.07;2.27;;;6.80;99.90;;;;;;4999484;28;20202;-76
2022/11/22 06:04:24;;;;;;;5.90;2.07;;;6.80;99.90;;;;;;5001199;28;20205;-75
2022/11/22 06:06:51;;;;;;;6.13;2.40;;;6.80;99.90;;;;;;4993716;28;20219;-76
2022/11/22 06:09:19;;;;;;;8.37;2.20;;;6.80;99.90;;;;;;4991814;28;20224;-75
2022/11/22 06:11:46;;;;;;;7.70;2.50;;;6.80;99.90;;;;;;4998629;28;20206;-75
2022/11/22 06:14:14;;;;;;;7.63;1.97;;;6.80;99.90;;;;;;4996558;28;20212;-74
2022/11/22 06:16:50;;;;;;;5.53;2.10;;;6.80;99.90;;;;;;5000757;28;20205;-75
2022/11/22 06:19:18;;;;;;;9.20;2.20;;;6.90;99.90;;;;;;4992865;28;20204;-75
2022/11/22 06:21:48;;;;;;;4.10;1.70;;;6.80;99.90;;;;;;4999598;28;20210;-75
2022/11/22 06:24:18;;;;;;;9.90;2.33;;;6.80;99.90;;;;;;4992012;28;20200;-75
2022/11/22 06:26:45;;;;;;;8.53;2.40;;;6.80;99.90;;;;;;5007151;28;20202;-75
2022/11/22 06:29:13;;;;;;;7.40;2.30;;;6.70;99.90;;;;;;4991180;28;20235;-75
2022/11/22 06:31:40;;;;;;;7.10;2.13;;;6.80;99.90;;;;;;5011604;28;20250;-78
2022/11/22 06:34:08;;;;;;;4.10;1.77;;;6.70;99.90;;;;;;4994309;28;20207;-78
2022/11/22 06:36:37;;;;;;;9.50;2.33;;;6.70;99.90;;;;;;4992126;28;20201;-78
2022/11/22 06:39:06;;;;;;;3.97;2.00;;;6.70;99.90;;;;;;4993208;28;20199;-78
2022/11/22 06:41:35;;;;;;;10.43;2.87;;;6.70;99.90;;;;;;5015637;28;20206;-78
2022/11/22 06:44:05;;;;;;;5.57;2.20;;;6.70;99.90;;;;;;4997484;28;20201;-78
2022/11/22 06:46:33;;;;;;;8.73;2.30;;;6.70;99.90;;;;;;5015527;28;20205;-78
2022/11/22 06:49:30;;;;;;;9.47;2.57;;;6.70;99.90;;;;;;5015329;28;20196;-78
2022/11/22 06:51:58;;;;;;;4.20;1.77;;;6.70;99.90;;;;;;4978159;28;20199;-78
2022/11/22 06:54:27;;;;;;;7.93;2.37;;;6.60;99.90;;;;;;4996864;28;20194;-78
2022/11/22 06:56:55;;;;;;;6.87;2.00;;;6.70;99.90;;;;;;4995074;28;20233;-77
2022/11/22 06:59:22;;;;;;;7.30;2.20;;;6.70;99.90;;;;;;5010400;28;20207;-77
2022/11/22 07:01:52;;;;;;;5.53;1.90;;;6.70;99.90;;;;;;5006756;28;20202;-77
2022/11/22 07:04:20;;;;;;;9.43;2.67;;;6.70;99.90;;;;;;5002852;28;20569;-78
2022/11/22 07:06:47;;;;;;;7.50;2.70;;;6.70;99.90;;;;;;5001051;28;20235;-78
2022/11/22 07:09:16;;;;;;;6.77;2.20;;;6.70;99.90;;;;;;5008281;28;20580;-78
2022/11/22 07:11:45;;;;;;;8.67;1.60;;;6.70;99.90;;;;;;4983527;28;20210;-78
2022/11/22 07:14:12;;;;;;;4.30;1.70;;;6.60;99.90;;;;;;4984873;28;20217;-77
2022/11/22 07:16:40;;;;;;;6.73;2.10;;;6.60;99.90;;;;;;5007333;28;20207;-78
2022/11/22 07:19:07;;;;;;;8.33;2.97;;;6.60;99.90;;;;;;4994473;28;20204;-78
2022/11/22 07:21:39;;;;;;;9.10;2.30;;;6.60;99.90;;;;;;5005250;28;20539;-78
2022/11/22 07:24:07;;;;;;;7.40;2.67;;;6.60;99.90;;;;;;4991838;28;20207;-78
2022/11/22 07:26:36;;;;;;;7.37;2.57;;;6.60;99.90;;;;;;5008669;28;20199;-78
2022/11/22 07:29:05;;;;;;;9.97;2.50;;;6.60;99.90;;;;;;4982856;28;20576;-78
2022/11/22 07:31:33;;;;;;;7.00;2.10;;;6.50;99.90;;;;;;4993055;28;20567;-78
2022/11/22 07:34:01;;;;;;;10.50;2.33;;;6.50;99.90;;;;;;4982868;28;20554;-78
2022/11/22 07:36:29;;;;;;;7.07;2.60;;;6.40;99.90;;;;;;4993818;28;20199;-78
2022/11/22 07:38:56;;;;;;;7.60;3.20;;;6.50;99.90;;;;;;4989289;28;20207;-78
2022/11/22 07:41:24;;;;;;;9.07;2.67;;;6.50;99.90;;;;;;4986945;28;20195;-76
2022/11/22 07:43:54;;;;;;;7.63;2.57;;;6.50;99.90;;;;;;5005065;28;20202;-77
2022/11/22 07:46:28;;;;;;;8.57;2.60;;;6.50;99.90;;;;;;4997645;28;20209;-78
2022/11/22 07:48:56;;;;;;;7.60;2.80;;;6.40;99.90;;;;;;4994655;28;20201;-77
2022/11/22 07:51:24;;;;;;;7.83;2.50;;;6.40;99.90;;;;;;5009209;28;20225;-77
2022/11/22 07:53:51;;;;;;;9.57;2.57;;;6.50;99.90;;;;;;5001795;28;20275;-78
2022/11/22 07:56:30;;;;;;;5.43;1.83;;;6.50;99.90;;;;;;4992601;28;20638;-78
2022/11/22 07:59:00;;;;;;;6.27;2.40;;;6.60;99.90;;;;;;4988777;28;20201;-78
2022/11/22 08:01:29;;;;;;;5.17;1.80;;;6.60;99.90;;;;;;4994641;28;20199;-78
2022/11/22 08:03:56;;;;;;;10.13;2.67;;;6.60;99.90;;;;;;5006583;28;20206;-78
2022/11/22 08:06:24;;;;;;;4.10;2.00;;;6.60;99.90;;;;;;4988532;28;20206;-77
2022/11/22 08:08:53;;;;;;;6.03;2.07;;;6.70;99.90;;;;;;4996802;28;20268;-77
2022/11/22 08:11:22;;;;;;;10.67;3.20;;;6.70;99.90;;;;;;4986742;28;20227;-77
2022/11/22 08:13:59;;;;;;;9.33;2.40;;;6.80;99.90;;;;;;5005084;28;20206;-77
2022/11/22 08:16:26;;;;;;;12.07;2.40;;;6.80;99.90;;;;;;5003954;28;20208;-77
2022/11/22 08:18:55;;;;;;;7.13;2.50;;;6.80;99.90;;;;;;5003236;28;20236;-77
2022/11/22 08:21:22;;;;;;;7.67;1.80;;;6.90;99.90;;;;;;5001876;28;20221;-77
2022/11/22 08:23:58;;;;;;;9.03;2.30;;;6.90;99.90;;;;;;5007798;28;20215;-77
2022/11/22 08:26:26;;;;;;;5.53;1.90;;;7.00;99.90;;;;;;4995897;28;20523;-77
2022/11/22 08:28:55;;;;;;;8.10;2.40;;;7.00;99.90;;;;;;5011443;28;20245;-77
2022/11/22 08:31:23;;;;;;;10.17;2.00;;;7.00;99.90;;;;;;4992692;28;20220;-77
2022/11/22 08:34:00;;;;;;;4.73;1.83;;;7.10;99.90;;;;;;4995510;28;20203;-77
2022/11/22 08:36:28;;;;;;;3.70;1.90;;;7.10;99.90;;;;;;4999453;28;20187;-77
2022/11/22 08:38:56;;;;;;;7.57;2.10;;;7.10;99.90;;;;;;4991644;28;20210;-77
2022/11/22 08:41:23;;;;;;;7.07;2.47;;;7.20;99.90;;;;;;5007740;28;20210;-77
2022/11/22 08:43:52;;;;;;;6.87;2.07;;;7.20;99.90;;;;;;5005255;28;20207;-77
2022/11/22 08:46:19;;;;;;;7.07;2.00;;;7.20;99.90;;;;;;4995267;28;20222;-77
2022/11/22 08:48:47;;;;;;;6.73;2.33;;;7.20;99.90;;;;;;4994235;28;20589;-77
2022/11/22 08:51:15;;;;;;;6.03;2.53;;;7.30;99.90;;;;;;5010011;28;20606;-77
2022/11/22 08:53:43;;;;;;;6.50;2.03;;;7.30;99.90;;;;;;5011853;28;20330;-77
2022/11/22 08:56:13;;;;;;;5.80;1.93;;;7.40;99.90;;;;;;5013113;28;20194;-77
2022/11/22 08:58:40;;;;;;;7.27;1.90;;;7.40;99.90;;;;;;4995492;28;20252;-77
2022/11/22 09:01:10;;;;;;;5.93;1.50;;;7.40;99.90;;;;;;5009109;28;20190;-77
2022/11/22 09:03:38;;;;;;;6.80;2.07;;;7.50;99.90;;;;;;4987460;28;20195;-77
2022/11/22 09:06:08;;;;;;;5.10;1.80;;;7.60;99.90;;;;;;4993344;28;20204;-77
2022/11/22 09:08:37;;;;;;;7.97;2.00;;;7.60;99.90;;;;;;5010236;28;20224;-78
2022/11/22 09:11:07;;;;;;;5.00;1.77;;;7.60;99.90;;;;;;4989075;28;20225;-77
2022/11/22 09:13:34;;;;;;;6.83;1.87;;;7.70;99.90;;;;;;4990194;28;20200;-78
2022/11/22 09:16:05;;;;;;;9.97;2.07;;;7.70;99.90;;;;;;4985586;28;20203;-78
2022/11/22 09:18:32;;;;;;;8.57;1.93;;;7.80;99.90;;;;;;5007501;28;20226;-78
2022/11/22 09:21:00;;;;;;;8.40;1.73;;;7.80;99.90;;;;;;4982371;28;20197;-78
2022/11/22 09:23:28;;;;;;;5.27;1.80;;;7.90;99.90;;;;;;5005496;28;20199;-76
2022/11/22 09:26:01;;;;;;;4.23;1.80;;;7.90;99.90;;;;;;4991133;28;20229;-77
2022/11/22 09:28:28;;;;;;;4.47;1.50;;;8.00;99.90;;;;;;4990755;28;20226;-77
2022/11/22 09:31:00;;;;;;;6.27;1.77;;;8.00;99.90;;;;;;4999499;28;20220;-77
2022/11/22 09:33:28;;;;;;;4.27;1.67;;;8.10;99.90;;;;;;4998345;28;20673;-77
2022/11/22 09:36:00;;;;;;;5.70;1.77;;;8.10;99.90;;;;;;4988363;28;20211;-77
2022/11/22 09:38:28;;;;;;;8.50;1.73;;;8.20;99.90;;;;;;4994489;28;20227;-77
2022/11/22 09:40:56;;;;;;;3.77;1.77;;;8.20;99.90;;;;;;4988003;28;20211;-77
2022/11/22 09:43:34;;;;;;;6.03;2.33;;;8.30;99.90;;;;;;4995343;28;20207;-77
2022/11/22 09:46:26;;;;;;;6.87;1.50;;;8.40;99.90;;;;;;5002488;28;20666;-77
2022/11/22 09:49:23;;;;;;;4.83;1.40;;;8.40;99.90;;;;;;4999885;28;20232;-77
2022/11/22 09:51:57;;;;;;;2.83;1.10;;;8.50;99.90;;;;;;4980896;28;20230;-77
2022/11/22 09:54:28;;;;;;;4.40;1.77;;;8.60;99.90;;;;;;4987128;28;20213;-77
